Time;durP1;ratioP1;P1;durP2;ratioP2;P2;SDS_P1;SDS_P2;PMS_P1;PMS_P2;Temp;Humidity;BMP_temperature;BMP_pressure;BME280_temperature;BME280_humidity;BME280_pressure;Samples;Min_cycle;Max_cycle;Signal;HPM_P1;HPM_P2
2023/03/13 00:01:16;;;;;;;2.35;1.33;;;;;;;13.63;51.93;99101.47;6099302;23;20612;-82
2023/03/13 00:03:42;;;;;;;1.75;1.00;;;;;;;13.63;52.03;99112.03;6091713;23;20226;-83
2023/03/13 00:06:08;;;;;;;2.07;1.10;;;;;;;13.64;51.92;99100.53;6069297;23;20186;-82
2023/03/13 00:08:33;;;;;;;2.80;0.77;;;;;;;13.66;51.99;99103.88;6094711;23;20200;-83
2023/03/13 00:11:06;;;;;;;2.10;1.10;;;;;;;13.66;51.86;99103.00;6097040;23;20207;-82
2023/03/13 00:13:31;;;;;;;1.58;1.20;;;;;;;13.69;51.69;99095.69;6094536;23;20204;-82
2023/03/13 00:16:08;;;;;;;1.43;0.90;;;;;;;13.69;51.84;99087.78;6092811;23;20162;-82
2023/03/13 00:18:34;;;;;;;2.88;1.15;;;;;;;13.67;51.82;99089.69;6094459;23;20558;-82
2023/03/13 00:21:09;;;;;;;2.15;0.98;;;;;;;13.65;52.25;99082.88;6095943;23;20162;-82
2023/03/13 00:23:36;;;;;;;7.32;1.52;;;;;;;13.66;52.13;99084.53;6095580;23;20169;-82
2023/03/13 00:26:07;;;;;;;2.22;1.10;;;;;;;13.66;52.08;99085.41;6097067;23;20638;-82
2023/03/13 00:28:34;;;;;;;1.30;1.05;;;;;;;13.68;52.17;99067.59;6094800;23;20570;-82
2023/03/13 00:31:06;;;;;;;1.15;1.00;;;;;;;13.69;51.96;99079.00;6096087;23;20223;-82
2023/03/13 00:33:35;;;;;;;1.40;1.00;;;;;;;13.69;52.04;99079.84;6094081;23;20569;-82
2023/03/13 00:36:06;;;;;;;2.72;1.50;;;;;;;13.71;52.31;99071.78;6072656;23;20166;-82
2023/03/13 00:38:31;;;;;;;2.40;1.23;;;;;;;13.69;52.11;99069.31;6095556;23;20174;-82
2023/03/13 00:41:02;;;;;;;2.67;0.90;;;;;;;13.72;52.07;99065.56;6096109;23;20170;-82
2023/03/13 00:43:28;;;;;;;1.92;1.10;;;;;;;13.71;52.14;99072.63;6099175;23;20166;-82
2023/03/13 00:45:53;;;;;;;1.20;0.98;;;;;;;13.73;52.03;99069.88;6099118;23;20170;-82
2023/03/13 00:48:19;;;;;;;1.43;1.17;;;;;;;13.74;52.13;99068.88;6096093;23;20503;-81
2023/03/13 00:50:44;;;;;;;3.27;1.20;;;;;;;13.74;52.15;99060.97;6065541;23;20169;-81
2023/03/13 00:53:09;;;;;;;2.83;0.80;;;;;;;13.74;52.11;99060.97;6092705;23;20249;-80
2023/03/13 00:55:35;;;;;;;4.40;0.90;;;;;;;13.77;52.00;99060.72;6093186;23;20795;-81
2023/03/13 00:58:00;;;;;;;2.20;1.10;;;;;;;13.80;52.14;99059.59;6093760;23;20215;-81
2023/03/13 01:00:26;;;;;;;1.47;0.83;;;;;;;13.82;51.99;99058.50;6091384;23;20190;-80
2023/03/13 01:02:51;;;;;;;1.13;1.03;;;;;;;13.86;51.88;99054.66;6067897;23;20178;-81
2023/03/13 01:05:16;;;;;;;2.80;0.93;;;;;;;13.88;51.87;99050.09;6065609;23;20193;-80
2023/03/13 01:07:42;;;;;;;1.30;1.00;;;;;;;13.92;51.83;99054.13;6064326;23;20257;-80
2023/03/13 01:10:08;;;;;;;6.20;1.50;;;;;;;13.95;51.95;99058.28;6066295;23;20235;-81
2023/03/13 01:12:33;;;;;;;1.13;1.00;;;;;;;13.97;51.81;99044.97;6091026;23;20162;-81
2023/03/13 01:14:58;;;;;;;1.67;0.90;;;;;;;13.99;51.84;99050.94;6092440;23;20527;-80
2023/03/13 01:17:24;;;;;;;2.13;1.47;;;;;;;14.00;52.12;99050.81;6066184;23;20230;-81
2023/03/13 01:19:49;;;;;;;1.60;1.10;;;;;;;13.99;52.56;99035.94;6065229;23;20608;-81
2023/03/13 01:22:15;;;;;;;1.70;1.13;;;;;;;13.97;53.08;99044.97;6065817;23;20171;-81
2023/03/13 01:24:40;;;;;;;3.13;0.90;;;;;;;13.97;53.63;99045.81;6090932;23;20185;-81
2023/03/13 01:27:05;;;;;;;1.53;0.93;;;;;;;13.93;53.86;99045.25;6093173;23;20692;-80
2023/03/13 01:29:31;;;;;;;2.47;1.10;;;;;;;13.88;54.66;99042.16;6066850;23;20171;-81
2023/03/13 01:31:57;;;;;;;3.75;1.40;;;;;;;13.83;54.99;99046.16;6065890;23;20190;-81
2023/03/13 01:34:23;;;;;;;2.38;0.90;;;;;;;13.76;55.81;99048.47;6092164;23;20472;-81
2023/03/13 01:36:51;;;;;;;3.60;0.90;;;;;;;13.70;56.37;99047.22;6067596;23;20637;-81
2023/03/13 01:39:16;;;;;;;2.90;1.10;;;;;;;13.64;57.05;99049.56;6067104;23;20494;-81
2023/03/13 01:41:42;;;;;;;1.60;1.17;;;;;;;13.57;57.44;99037.84;6091295;23;20505;-81
2023/03/13 01:44:20;;;;;;;2.50;0.97;;;;;;;13.49;57.88;99034.03;6065628;23;20163;-80
2023/03/13 01:46:45;;;;;;;1.48;0.90;;;;;;;13.45;58.32;99031.81;6092839;23;20187;-81
2023/03/13 01:49:33;;;;;;;3.03;0.90;;;;;;;13.35;59.03;99026.47;6067445;23;20546;-80
2023/03/13 01:52:25;;;;;;;2.13;1.10;;;;;;;13.30;59.28;99026.00;6092580;23;20175;-81
2023/03/13 01:55:14;;;;;;;2.45;1.20;;;;;;;13.23;59.89;99015.13;6063157;23;20653;-80
2023/03/13 01:57:49;;;;;;;1.20;1.10;;;;;;;13.18;60.22;99013.84;6064059;23;20216;-80
2023/03/13 02:00:32;;;;;;;1.10;1.00;;;;;;;13.16;60.19;99002.56;6088353;23;20713;-81
2023/03/13 02:03:05;;;;;;;1.23;1.10;;;;;;;13.17;60.10;98999.78;6089165;23;20174;-80
2023/03/13 02:05:33;;;;;;;4.05;1.20;;;;;;;13.19;59.69;98997.03;6089956;23;20166;-81
2023/03/13 02:08:07;;;;;;;5.65;2.20;;;;;;;13.22;59.52;98992.31;6065725;23;20214;-81
2023/03/13 02:10:40;;;;;;;1.35;1.00;;;;;;;13.26;59.12;98982.41;6063994;23;20391;-81
2023/03/13 02:13:06;;;;;;;1.52;1.00;;;;;;;13.30;58.64;98982.97;6087560;23;20538;-80
2023/03/13 02:15:33;;;;;;;4.27;1.20;;;;;;;13.35;58.36;98981.63;6061593;23;20167;-80
2023/03/13 02:17:59;;;;;;;1.33;0.80;;;;;;;13.39;58.32;98979.53;6061977;23;20248;-80
2023/03/13 02:20:25;;;;;;;2.20;1.00;;;;;;;13.42;57.89;98984.56;6087921;23;20219;-81
2023/03/13 02:23:05;;;;;;;2.47;0.90;;;;;;;13.43;57.53;98971.25;6063312;23;20176;-82
2023/03/13 02:25:46;;;;;;;1.08;0.90;;;;;;;13.48;57.32;98960.31;6084927;23;20166;-82
2023/03/13 02:28:22;;;;;;;1.63;1.10;;;;;;;13.49;57.35;98952.25;6059235;23;20760;-80
2023/03/13 02:30:50;;;;;;;0.90;0.80;;;;;;;13.47;57.32;98948.94;6084039;23;20167;-79
2023/03/13 02:33:18;;;;;;;2.00;1.10;;;;;;;13.49;57.61;98946.13;6057996;23;20444;-80
2023/03/13 02:35:45;;;;;;;3.25;1.08;;;;;;;13.49;57.50;98940.84;6061802;23;20166;-80
2023/03/13 02:38:22;;;;;;;1.67;1.35;;;;;;;13.48;57.63;98944.47;6067977;23;20193;-81
2023/03/13 02:40:50;;;;;;;1.42;1.23;;;;;;;13.48;57.53;98945.31;6088793;23;20178;-81
2023/03/13 02:43:23;;;;;;;1.60;0.90;;;;;;;13.45;57.66;98939.47;6064743;23;20606;-81
2023/03/13 02:46:01;;;;;;;2.42;1.30;;;;;;;13.46;57.63;98938.50;6092624;23;20164;-81
2023/03/13 02:48:34;;;;;;;1.80;0.80;;;;;;;13.44;57.74;98945.69;6066481;23;20237;-81
2023/03/13 02:51:02;;;;;;;1.67;1.10;;;;;;;13.43;57.94;98946.66;6066082;23;20174;-81
2023/03/13 02:53:28;;;;;;;2.35;1.13;;;;;;;13.43;57.86;98942.22;6066999;23;20775;-81
2023/03/13 02:55:54;;;;;;;1.85;0.90;;;;;;;13.42;57.84;98951.13;6066884;23;20186;-81
2023/03/13 02:58:23;;;;;;;1.50;1.00;;;;;;;13.43;57.91;98944.88;6067277;23;20205;-81
2023/03/13 03:00:48;;;;;;;2.50;1.15;;;;;;;13.43;57.99;98944.88;6066920;23;20504;-81
2023/03/13 03:03:16;;;;;;;1.85;0.85;;;;;;;13.42;58.36;98939.69;6089146;23;20608;-80
2023/03/13 03:05:41;;;;;;;5.93;1.33;;;;;;;13.40;58.30;98960.97;6093871;23;20169;-81
2023/03/13 03:08:07;;;;;;;1.30;1.20;;;;;;;13.40;58.31;98946.94;6062227;23;20274;-81
2023/03/13 03:10:35;;;;;;;1.50;1.20;;;;;;;13.36;58.44;98956.91;6064968;23;20513;-81
2023/03/13 03:13:02;;;;;;;2.10;1.00;;;;;;;13.34;58.65;98950.06;6089887;23;20232;-80
2023/03/13 03:15:28;;;;;;;2.95;1.15;;;;;;;13.30;58.84;98953.97;6065370;23;20625;-81
2023/03/13 03:17:54;;;;;;;2.87;1.40;;;;;;;13.25;59.15;98949.03;6091142;23;20246;-80
2023/03/13 03:20:19;;;;;;;4.00;1.10;;;;;;;13.20;59.24;98944.16;6090269;23;20164;-80
2023/03/13 03:22:45;;;;;;;1.50;1.10;;;;;;;13.17;59.49;98947.06;6064672;23;20167;-81
2023/03/13 03:25:11;;;;;;;3.13;2.07;;;;;;;13.12;59.64;98943.97;6064477;23;20973;-81
2023/03/13 03:27:36;;;;;;;1.23;1.10;;;;;;;13.09;59.95;98944.22;6066197;23;20524;-80
2023/03/13 03:30:05;;;;;;;1.90;1.15;;;;;;;13.04;60.07;98942.00;6066998;23;20171;-80
2023/03/13 03:32:32;;;;;;;5.10;1.77;;;;;;;12.99;60.24;98946.00;6064743;23;20169;-81
2023/03/13 03:34:58;;;;;;;2.00;1.77;;;;;;;12.95;60.93;98940.13;6067066;23;20174;-81
2023/03/13 03:37:23;;;;;;;3.30;1.50;;;;;;;12.91;61.00;98949.28;6063480;23;20232;-81
2023/03/13 03:39:49;;;;;;;2.10;1.20;;;;;;;12.84;61.35;98950.72;6089703;23;20186;-81
2023/03/13 03:42:14;;;;;;;1.30;1.17;;;;;;;12.82;61.79;98955.28;6074189;23;20170;-80
2023/03/13 03:44:41;;;;;;;6.07;1.20;;;;;;;12.76;62.05;98953.19;6065090;23;20600;-81
2023/03/13 03:47:07;;;;;;;2.50;1.40;;;;;;;12.74;62.40;98966.47;6064733;23;20287;-80
2023/03/13 03:49:37;;;;;;;4.35;1.15;;;;;;;12.70;63.17;98964.22;6063448;23;20165;-80
2023/03/13 03:52:02;;;;;;;1.37;1.10;;;;;;;12.66;63.59;98968.06;6063557;23;20230;-80
2023/03/13 03:54:33;;;;;;;2.15;1.13;;;;;;;12.58;64.34;98953.75;6065532;23;20180;-80
2023/03/13 03:56:59;;;;;;;1.73;1.45;;;;;;;12.52;65.00;98956.88;6065961;23;20195;-80
2023/03/13 03:59:25;;;;;;;6.50;1.37;;;;;;;12.46;65.48;98953.91;6065696;23;20161;-80
2023/03/13 04:02:05;;;;;;;1.73;1.13;;;;;;;12.38;65.81;98954.53;6064336;23;20152;-80
2023/03/13 04:04:32;;;;;;;1.60;1.20;;;;;;;12.33;66.17;98965.44;6063848;23;20621;-80
2023/03/13 04:07:02;;;;;;;1.83;1.27;;;;;;;12.32;66.46;98962.94;6067614;23;20255;-81
2023/03/13 04:09:29;;;;;;;1.17;1.08;;;;;;;12.30;66.81;98954.31;6076363;23;20221;-80
2023/03/13 04:11:55;;;;;;;2.27;1.37;;;;;;;12.27;66.92;98955.41;6107368;23;20199;-80
2023/03/13 04:14:21;;;;;;;2.10;1.43;;;;;;;12.29;66.71;98948.22;6087694;23;20203;-79
2023/03/13 04:16:46;;;;;;;1.10;1.00;;;;;;;12.28;66.77;98943.91;6093029;23;20923;-79
2023/03/13 04:19:13;;;;;;;2.60;1.05;;;;;;;12.31;66.67;98927.88;6118102;23;20206;-80
2023/03/13 04:21:40;;;;;;;2.78;1.30;;;;;;;12.30;66.74;98925.34;6119204;23;20995;-80
2023/03/13 04:24:10;;;;;;;2.15;1.60;;;;;;;12.33;66.61;98912.75;6117732;23;20175;-79
2023/03/13 04:26:38;;;;;;;5.45;1.73;;;;;;;12.35;66.42;98917.91;6117170;23;20181;-79
2023/03/13 04:29:05;;;;;;;2.07;1.40;;;;;;;12.37;66.25;98910.72;6116867;23;20174;-79
2023/03/13 04:31:44;;;;;;;1.20;1.10;;;;;;;12.38;66.25;98907.97;6116345;23;20292;-79
2023/03/13 04:34:26;;;;;;;1.20;1.00;;;;;;;12.40;66.35;98892.03;6116778;23;20441;-79
2023/03/13 04:37:05;;;;;;;1.75;1.00;;;;;;;12.40;66.27;98887.59;6117854;23;20750;-79
2023/03/13 04:39:48;;;;;;;1.10;0.98;;;;;;;12.44;66.13;98906.59;6116176;23;20628;-80
2023/03/13 04:42:32;;;;;;;1.98;1.20;;;;;;;12.48;65.86;98910.69;6117981;23;20206;-79
2023/03/13 04:45:16;;;;;;;1.88;0.90;;;;;;;12.50;65.71;98937.75;6145275;23;20210;-80
2023/03/13 04:47:58;;;;;;;2.60;1.17;;;;;;;12.53;65.83;98940.13;6146411;23;20283;-79
2023/03/13 04:50:42;;;;;;;1.70;1.15;;;;;;;12.54;65.75;98943.56;6146043;23;20201;-80
2023/03/13 04:53:28;;;;;;;1.80;1.10;;;;;;;12.59;65.71;98946.66;6145027;23;20575;-80
2023/03/13 04:56:07;;;;;;;1.65;1.13;;;;;;;12.62;65.63;98935.88;6146652;23;20258;-79
2023/03/13 04:58:49;;;;;;;1.35;1.05;;;;;;;12.65;65.73;98934.78;6120621;23;20194;-80
2023/03/13 05:01:35;;;;;;;3.78;0.90;;;;;;;12.69;65.86;98925.66;6120208;23;20181;-80
2023/03/13 05:04:19;;;;;;;1.70;0.80;;;;;;;12.71;66.14;98929.00;6145485;23;20189;-80
2023/03/13 05:06:56;;;;;;;1.00;0.90;;;;;;;12.69;66.37;98930.91;6147135;23;20262;-80
2023/03/13 05:09:36;;;;;;;2.65;0.90;;;;;;;12.67;66.50;98919.69;6120266;23;20803;-79
2023/03/13 05:12:20;;;;;;;1.25;0.85;;;;;;;12.66;66.90;98924.09;6144501;23;20245;-79
2023/03/13 05:14:57;;;;;;;2.05;0.95;;;;;;;12.62;67.10;98927.97;6118065;23;20201;-80
2023/03/13 05:18:01;;;;;;;2.30;0.95;;;;;;;12.59;67.57;98922.97;6083482;23;20567;-80
2023/03/13 05:20:45;;;;;;;2.15;0.85;;;;;;;12.55;67.94;98919.72;6084072;23;20195;-79
2023/03/13 05:23:21;;;;;;;2.97;1.20;;;;;;;12.51;68.07;98918.31;6101170;23;20224;-79
2023/03/13 05:26:04;;;;;;;1.65;1.10;;;;;;;12.52;68.47;98909.44;6144947;23;20201;-79
2023/03/13 05:28:29;;;;;;;1.88;0.90;;;;;;;12.51;68.61;98915.69;6145152;23;20210;-79
2023/03/13 05:31:15;;;;;;;4.10;1.50;;;;;;;12.52;68.68;98904.19;6124524;23;20187;-79
2023/03/13 05:33:59;;;;;;;4.00;1.20;;;;;;;12.56;68.60;98887.16;6144752;23;20654;-79
2023/03/13 05:36:43;;;;;;;1.10;0.90;;;;;;;12.59;68.77;98886.09;6144731;23;20242;-79
2023/03/13 05:39:30;;;;;;;1.35;1.10;;;;;;;12.57;68.63;98896.72;6119847;23;20190;-79
2023/03/13 05:42:09;;;;;;;0.80;0.80;;;;;;;12.59;68.63;98899.25;6117865;23;20651;-79
2023/03/13 05:45:08;;;;;;;1.15;1.00;;;;;;;12.62;68.46;98901.63;6126142;23;20505;-79
2023/03/13 05:47:59;;;;;;;1.65;0.90;;;;;;;12.61;68.52;98908.69;6108886;23;20203;-79
2023/03/13 05:50:28;;;;;;;1.33;0.95;;;;;;;12.60;68.35;98904.38;6145759;23;20632;-79
2023/03/13 05:53:13;;;;;;;1.98;0.90;;;;;;;12.62;68.34;98915.63;6140432;23;20577;-81
2023/03/13 05:55:57;;;;;;;4.90;1.83;;;;;;;12.60;68.49;98914.91;6139140;23;20237;-81
2023/03/13 05:58:49;;;;;;;0.80;0.80;;;;;;;12.63;68.41;98905.91;6113431;23;20204;-79
2023/03/13 06:01:27;;;;;;;1.35;0.80;;;;;;;12.62;68.29;98909.53;6140428;23;20186;-79
2023/03/13 06:04:04;;;;;;;1.35;1.17;;;;;;;12.61;68.23;98895.53;6140116;23;20508;-79
2023/03/13 06:06:32;;;;;;;2.50;1.30;;;;;;;12.63;68.28;98903.28;6113703;23;20626;-79
2023/03/13 06:08:58;;;;;;;1.70;1.10;;;;;;;12.63;68.30;98882.22;6115538;23;20207;-80
2023/03/13 06:11:27;;;;;;;2.83;1.20;;;;;;;12.63;68.31;98892.75;6112995;23;20190;-79
2023/03/13 06:13:55;;;;;;;1.83;1.10;;;;;;;12.64;68.55;98883.91;6110830;23;20230;-79
2023/03/13 06:16:30;;;;;;;3.05;1.08;;;;;;;12.67;68.48;98895.97;6112460;23;20469;-79
2023/03/13 06:19:10;;;;;;;2.10;1.10;;;;;;;12.71;68.61;98892.13;6137925;23;20795;-81
2023/03/13 06:21:36;;;;;;;1.70;1.60;;;;;;;12.74;68.47;98873.41;6137925;23;20180;-79
2023/03/13 06:24:01;;;;;;;4.40;1.57;;;;;;;12.77;68.48;98873.13;6137441;23;20476;-80
2023/03/13 06:26:27;;;;;;;1.07;0.97;;;;;;;12.82;68.41;98884.13;6138215;23;20725;-81
2023/03/13 06:28:52;;;;;;;1.10;0.87;;;;;;;12.85;68.19;98881.22;6113402;23;20642;-79
2023/03/13 06:31:18;;;;;;;1.87;1.00;;;;;;;12.90;68.25;98881.69;6141197;23;20628;-79
2023/03/13 06:33:43;;;;;;;1.23;0.70;;;;;;;12.96;68.12;98864.50;6138983;23;20675;-79
2023/03/13 06:36:09;;;;;;;1.40;1.13;;;;;;;13.00;67.95;98856.22;6136999;23;20525;-79
2023/03/13 06:38:35;;;;;;;1.70;0.80;;;;;;;13.07;67.65;98861.81;6137308;23;20731;-79
2023/03/13 06:41:00;;;;;;;1.30;0.90;;;;;;;13.14;67.66;98864.75;6138943;23;20403;-79
2023/03/13 06:43:26;;;;;;;1.10;0.97;;;;;;;13.19;67.38;98865.19;6139599;23;20452;-79
2023/03/13 06:45:51;;;;;;;1.20;1.00;;;;;;;13.25;67.15;98870.75;6139698;23;20568;-80
2023/03/13 06:48:17;;;;;;;1.00;0.90;;;;;;;13.31;67.03;98869.41;6139249;23;20189;-79
2023/03/13 06:50:43;;;;;;;2.30;1.43;;;;;;;13.37;66.91;98874.19;6140371;23;20202;-81
2023/03/13 06:53:18;;;;;;;2.13;1.30;;;;;;;13.42;66.74;98873.75;6140735;23;20960;-81
2023/03/13 06:55:44;;;;;;;2.55;1.60;;;;;;;13.45;66.61;98869.06;6139291;23;20402;-79
2023/03/13 06:58:09;;;;;;;2.33;1.60;;;;;;;13.53;66.38;98888.66;6140298;23;20563;-81
2023/03/13 07:00:35;;;;;;;2.73;1.80;;;;;;;13.57;66.16;98896.16;6139963;23;20611;-80
2023/03/13 07:03:00;;;;;;;3.20;1.47;;;;;;;13.62;65.97;98896.59;6142457;23;20166;-79
2023/03/13 07:05:26;;;;;;;2.77;1.20;;;;;;;13.69;66.08;98894.25;6140522;23;20384;-82
2023/03/13 07:07:51;;;;;;;1.03;0.80;;;;;;;13.73;65.91;98878.03;6141517;23;20195;-80
2023/03/13 07:10:17;;;;;;;0.77;0.70;;;;;;;13.79;65.71;98879.28;6140585;23;20498;-81
2023/03/13 07:12:43;;;;;;;2.60;1.00;;;;;;;13.85;65.62;98881.41;6137719;23;20210;-80
2023/03/13 07:15:09;;;;;;;1.65;0.88;;;;;;;13.89;65.37;98872.22;6141988;23;20787;-79
2023/03/13 07:17:35;;;;;;;1.10;1.00;;;;;;;13.97;65.21;98876.00;6141726;23;20552;-81
2023/03/13 07:20:03;;;;;;;1.00;0.90;;;;;;;14.04;64.71;98872.66;6142253;23;20234;-79
2023/03/13 07:22:29;;;;;;;1.00;0.80;;;;;;;14.13;64.37;98871.00;6142373;23;20411;-80
2023/03/13 07:24:54;;;;;;;1.00;0.73;;;;;;;14.22;64.21;98871.97;6141419;23;20156;-81
2023/03/13 07:27:21;;;;;;;0.80;0.80;;;;;;;14.34;63.70;98870.88;6142458;23;20175;-80
2023/03/13 07:29:46;;;;;;;1.90;1.10;;;;;;;14.46;63.16;98871.53;6115624;23;20173;-80
2023/03/13 07:32:12;;;;;;;1.17;0.90;;;;;;;14.51;62.80;98867.50;6142490;23;20246;-80
2023/03/13 07:34:37;;;;;;;0.90;0.70;;;;;;;14.61;62.86;98849.03;6140515;23;20218;-79
2023/03/13 07:37:03;;;;;;;1.13;0.87;;;;;;;14.71;62.30;98833.13;6141410;23;20171;-81
2023/03/13 07:39:28;;;;;;;0.93;0.70;;;;;;;14.79;61.88;98828.81;6142082;23;20163;-80
2023/03/13 07:41:53;;;;;;;0.80;0.80;;;;;;;14.88;61.68;98826.28;6139221;23;20650;-79
2023/03/13 07:44:19;;;;;;;0.90;0.83;;;;;;;14.96;61.26;98821.94;6146020;23;20878;-80
2023/03/13 07:46:47;;;;;;;0.80;0.80;;;;;;;15.07;61.09;98813.00;6143225;23;20626;-79
2023/03/13 07:49:13;;;;;;;1.27;1.17;;;;;;;15.16;60.79;98822.69;6142538;23;20163;-81
2023/03/13 07:51:38;;;;;;;1.20;0.80;;;;;;;15.26;60.63;98806.78;6141969;23;20159;-80
2023/03/13 07:54:03;;;;;;;3.17;0.90;;;;;;;15.40;60.23;98811.56;6143779;23;20423;-80
2023/03/13 07:56:29;;;;;;;1.17;1.07;;;;;;;15.48;60.02;98802.91;6143946;23;20160;-78
2023/03/13 07:58:55;;;;;;;1.80;1.17;;;;;;;15.59;59.73;98805.34;6087659;23;20281;-79
2023/03/13 08:01:26;;;;;;;2.67;1.50;;;;;;;15.70;59.56;98789.25;6142041;23;20221;-81
2023/03/13 08:03:53;;;;;;;1.67;0.98;;;;;;;15.85;58.92;98809.91;6140257;23;20733;-79
2023/03/13 08:06:26;;;;;;;0.80;0.80;;;;;;;15.97;58.58;98800.78;6142706;23;20166;-80
2023/03/13 08:08:52;;;;;;;2.33;1.30;;;;;;;16.09;58.37;98809.31;6140849;23;20207;-79
2023/03/13 08:11:24;;;;;;;1.63;0.90;;;;;;;16.22;58.09;98798.31;6141977;23;20593;-80
2023/03/13 08:13:49;;;;;;;1.50;0.90;;;;;;;16.38;57.19;98790.50;6139003;23;20661;-78
2023/03/13 08:16:21;;;;;;;1.13;0.98;;;;;;;16.65;56.44;98794.81;6138526;23;20272;-83
2023/03/13 08:18:49;;;;;;;1.45;1.00;;;;;;;17.16;55.21;98787.00;6137929;23;20201;-81
2023/03/13 08:21:19;;;;;;;2.20;1.00;;;;;;;17.83;53.54;98798.50;6139232;23;20249;-81
2023/03/13 08:23:46;;;;;;;2.28;1.30;;;;;;;18.42;52.03;98800.19;6140484;23;20225;-79
2023/03/13 08:26:16;;;;;;;0.80;0.70;;;;;;;18.78;50.55;98801.47;6138820;23;20159;-80
2023/03/13 08:28:44;;;;;;;3.77;1.00;;;;;;;18.97;50.12;98802.09;6138445;23;20417;-81
2023/03/13 08:31:13;;;;;;;0.70;0.70;;;;;;;19.06;49.62;98782.44;6139742;23;20395;-79
2023/03/13 08:33:40;;;;;;;1.13;0.83;;;;;;;19.24;49.34;98796.34;6139049;23;20940;-81
2023/03/13 08:36:16;;;;;;;1.93;0.90;;;;;;;19.53;48.33;98792.22;6138507;23;20469;-82
2023/03/13 08:38:43;;;;;;;1.07;0.80;;;;;;;19.84;47.51;98781.53;6138500;23;20390;-82
2023/03/13 08:41:09;;;;;;;1.40;0.70;;;;;;;20.25;46.60;98775.06;6140270;23;20484;-80
2023/03/13 08:43:34;;;;;;;0.80;0.80;;;;;;;20.71;45.41;98761.63;6139973;23;20415;-81
2023/03/13 08:46:00;;;;;;;2.20;1.10;;;;;;;20.76;45.01;98764.59;6139328;23;20935;-82
2023/03/13 08:48:25;;;;;;;0.80;0.80;;;;;;;20.81;44.83;98767.53;6141413;23;20183;-80
2023/03/13 08:51:11;;;;;;;0.80;0.70;;;;;;;21.06;44.26;98765.41;6140617;23;20163;-82
2023/03/13 08:53:39;;;;;;;1.50;1.00;;;;;;;21.24;43.93;98761.53;6139162;23;20573;-80
2023/03/13 08:56:05;;;;;;;1.67;0.80;;;;;;;21.46;43.68;98744.56;6142953;23;20457;-79
2023/03/13 08:58:31;;;;;;;0.90;0.80;;;;;;;21.56;43.13;98746.94;6142780;23;20491;-80
2023/03/13 09:01:02;;;;;;;1.17;0.80;;;;;;;21.72;42.60;98744.03;6141306;23;20722;-80
2023/03/13 09:03:28;;;;;;;1.30;0.90;;;;;;;22.05;42.29;98732.81;6141152;23;20387;-80
2023/03/13 09:05:55;;;;;;;1.73;0.90;;;;;;;22.19;41.57;98731.09;6141934;23;20697;-79
2023/03/13 09:08:21;;;;;;;0.93;0.83;;;;;;;22.12;41.70;98735.53;6140773;23;20194;-82
2023/03/13 09:10:46;;;;;;;1.87;1.00;;;;;;;22.05;41.86;98722.09;6140090;23;20406;-79
2023/03/13 09:13:12;;;;;;;1.33;0.83;;;;;;;22.04;41.42;98715.13;6142632;23;20167;-80
2023/03/13 09:15:37;;;;;;;2.30;1.00;;;;;;;22.02;41.76;98703.78;6139526;23;20278;-79
2023/03/13 09:18:03;;;;;;;1.77;1.00;;;;;;;21.88;41.77;98700.97;6142676;23;20179;-82
2023/03/13 09:20:28;;;;;;;2.40;1.30;;;;;;;21.81;41.89;98705.44;6140006;23;20364;-82
2023/03/13 09:22:53;;;;;;;1.07;0.97;;;;;;;21.74;42.14;98707.25;6139152;23;20164;-79
2023/03/13 09:25:19;;;;;;;0.70;0.63;;;;;;;21.82;41.87;98712.47;6142625;23;20179;-81
2023/03/13 09:27:44;;;;;;;1.20;1.00;;;;;;;21.84;41.92;98713.06;6139458;23;20179;-82
2023/03/13 09:30:10;;;;;;;1.10;0.80;;;;;;;21.74;42.07;98715.25;6139388;23;20492;-79
2023/03/13 09:32:36;;;;;;;3.10;1.13;;;;;;;21.47;42.67;98718.66;6140300;23;20155;-81
2023/03/13 09:35:01;;;;;;;1.47;0.90;;;;;;;21.18;42.96;98704.34;6138995;23;20403;-79
2023/03/13 09:37:26;;;;;;;1.27;0.83;;;;;;;21.04;43.48;98702.56;6139963;23;20202;-80
2023/03/13 09:39:52;;;;;;;1.53;1.20;;;;;;;20.96;43.58;98682.94;6139914;23;20611;-80
2023/03/13 09:42:23;;;;;;;0.90;0.80;;;;;;;20.85;43.99;98679.94;6139509;23;20171;-81
2023/03/13 09:44:58;;;;;;;1.27;1.17;;;;;;;20.87;44.36;98680.56;6138326;23;20712;-80
2023/03/13 09:47:32;;;;;;;1.17;0.97;;;;;;;20.96;44.41;98666.94;6140364;23;20504;-81
2023/03/13 09:50:26;;;;;;;5.30;1.67;;;;;;;21.09;44.24;98668.09;6112921;23;20428;-83
2023/03/13 09:53:02;;;;;;;1.30;0.90;;;;;;;21.04;44.23;98665.19;6125428;23;20385;-81
2023/03/13 09:55:35;;;;;;;1.20;1.10;;;;;;;20.95;44.68;98654.59;6141751;23;20427;-80
2023/03/13 09:58:03;;;;;;;0.83;0.70;;;;;;;20.82;44.91;98649.13;6142561;23;20413;-81
2023/03/13 10:00:39;;;;;;;1.10;0.80;;;;;;;20.74;44.89;98627.88;6141632;23;20486;-82
2023/03/13 10:03:22;;;;;;;1.30;0.80;;;;;;;20.73;45.03;98626.19;6143340;23;20372;-82
2023/03/13 10:06:17;;;;;;;0.90;0.73;;;;;;;20.90;44.53;98619.63;6144045;23;20379;-80
2023/03/13 10:08:42;;;;;;;2.13;1.43;;;;;;;21.06;43.96;98623.91;6146783;23;20467;-80
2023/03/13 10:11:28;;;;;;;1.27;0.90;;;;;;;21.04;43.87;98630.47;6148970;23;20366;-80
2023/03/13 10:14:10;;;;;;;1.30;0.97;;;;;;;20.88;44.28;98616.31;6148484;23;20191;-78
2023/03/13 10:16:53;;;;;;;0.97;0.97;;;;;;;20.69;44.59;98616.91;6148641;23;20461;-80
2023/03/13 10:19:26;;;;;;;1.67;1.00;;;;;;;20.48;44.99;98614.97;6145423;23;21121;-80
2023/03/13 10:21:54;;;;;;;1.93;0.80;;;;;;;20.27;45.40;98615.72;6147276;23;20408;-79
2023/03/13 10:24:35;;;;;;;1.10;0.80;;;;;;;20.12;45.87;98599.72;6118900;23;20395;-80
2023/03/13 10:27:00;;;;;;;1.00;0.90;;;;;;;20.09;45.75;98597.41;6146414;23;20424;-80
2023/03/13 10:29:30;;;;;;;4.43;0.80;;;;;;;20.07;45.98;98581.59;6144698;23;20395;-79
2023/03/13 10:31:56;;;;;;;0.83;0.80;;;;;;;20.11;46.06;98571.41;6147120;23;20174;-79
2023/03/13 10:34:21;;;;;;;2.00;1.20;;;;;;;20.28;45.74;98564.03;6146188;23;20488;-81
2023/03/13 10:36:53;;;;;;;2.03;1.00;;;;;;;20.62;45.28;98559.97;6146676;23;20412;-80
2023/03/13 10:39:21;;;;;;;1.83;1.00;;;;;;;21.02;44.64;98545.22;6147650;23;20437;-80
2023/03/13 10:41:48;;;;;;;3.90;0.87;;;;;;;21.27;44.15;98534.94;6149163;23;20407;-80
2023/03/13 10:44:19;;;;;;;0.80;0.70;;;;;;;21.40;44.10;98536.94;6121906;23;20359;-81
2023/03/13 10:46:47;;;;;;;1.37;0.80;;;;;;;21.45;43.92;98517.66;6146817;23;20906;-81
2023/03/13 10:49:18;;;;;;;1.00;0.80;;;;;;;21.46;44.12;98513.97;6147077;23;20483;-79
2023/03/13 10:51:56;;;;;;;1.03;0.80;;;;;;;21.52;43.60;98505.16;6147759;23;20407;-78
2023/03/13 10:54:23;;;;;;;0.80;0.70;;;;;;;21.60;43.58;98494.31;6148408;23;20442;-79
2023/03/13 10:56:50;;;;;;;1.73;0.87;;;;;;;21.68;43.34;98482.66;6144982;23;20389;-79
2023/03/13 10:59:22;;;;;;;0.93;0.87;;;;;;;21.82;43.24;98476.41;6143591;23;20404;-81
2023/03/13 11:01:48;;;;;;;1.20;0.80;;;;;;;21.88;43.02;98470.25;6141183;23;20404;-82
2023/03/13 11:04:28;;;;;;;1.83;0.90;;;;;;;21.92;43.00;98460.78;6139048;23;20395;-78
2023/03/13 11:07:00;;;;;;;0.80;0.77;;;;;;;21.99;42.70;98461.66;6096268;23;1056324;-79
2023/03/13 11:09:26;;;;;;;3.93;0.90;;;;;;;22.07;42.23;98447.28;6142780;23;20846;-79
2023/03/13 11:11:53;;;;;;;1.10;0.70;;;;;;;22.14;41.68;98437.44;6146520;23;20368;-82
2023/03/13 11:14:24;;;;;;;0.97;0.90;;;;;;;22.15;42.03;98424.91;6148375;23;20442;-79
2023/03/13 11:16:54;;;;;;;2.70;0.80;;;;;;;22.20;41.79;98425.97;6148630;23;20373;-79
2023/03/13 11:19:39;;;;;;;1.57;1.40;;;;;;;22.27;41.30;98416.09;6144630;23;20361;-78
2023/03/13 11:22:04;;;;;;;1.33;0.80;;;;;;;22.25;41.54;98409.31;6144118;23;20691;-81
2023/03/13 11:24:38;;;;;;;0.83;0.80;;;;;;;22.25;41.49;98417.31;6141442;23;20426;-78
2023/03/13 11:27:20;;;;;;;2.60;0.90;;;;;;;22.27;41.39;98410.75;6142492;23;20179;-82
2023/03/13 11:30:08;;;;;;;1.50;0.80;;;;;;;22.32;41.40;98404.81;6142429;23;20710;-78
2023/03/13 11:32:51;;;;;;;1.97;0.70;;;;;;;22.36;40.62;98381.97;6141438;23;20387;-78
2023/03/13 11:35:24;;;;;;;1.00;0.70;;;;;;;22.31;40.92;98385.25;6132738;23;20406;-78
2023/03/13 11:37:55;;;;;;;1.83;1.00;;;;;;;22.30;40.67;98388.97;6143604;23;20721;-78
2023/03/13 11:40:30;;;;;;;0.80;0.63;;;;;;;22.25;40.86;98390.56;6070610;23;20442;-79
2023/03/13 11:43:12;;;;;;;1.10;0.90;;;;;;;22.27;40.55;98389.34;6084901;23;20363;-78
2023/03/13 11:45:55;;;;;;;0.90;0.80;;;;;;;22.28;40.61;98380.31;6082300;23;20428;-80
2023/03/13 11:48:45;;;;;;;1.00;0.80;;;;;;;22.37;40.44;98385.47;6084757;23;20417;-80
2023/03/13 11:51:16;;;;;;;0.90;0.80;;;;;;;22.40;39.97;98371.69;6057102;23;20413;-82